Time;durP1;ratioP1;P1;durP2;ratioP2;P2;SDS_P1;SDS_P2;PMS_P1;PMS_P2;Temp;Humidity;BMP_temperature;BMP_pressure;BME280_temperature;BME280_humidity;BME280_pressure;Samples;Min_cycle;Max_cycle;Signal;HPM_P1;HPM_P2
2022/02/22 00:00:47;;;;;;;88.95;43.70;;;;;;;10.53;68.88;98762.09;5135159;27;20034;-77
2022/02/22 00:03:12;;;;;;;89.22;43.25;;;;;;;10.48;68.98;98783.00;5151114;27;20370;-77
2022/02/22 00:05:38;;;;;;;84.32;42.42;;;;;;;10.54;69.37;98780.44;5133572;27;20042;-77
2022/02/22 00:08:07;;;;;;;87.03;40.58;;;;;;;10.78;67.81;98789.06;5133781;27;20077;-77
2022/02/22 00:10:32;;;;;;;79.13;39.63;;;;;;;10.52;68.28;98766.56;5134159;27;20038;-77
2022/02/22 00:12:58;;;;;;;78.25;39.17;;;;;;;10.59;68.43;98755.25;5132717;27;20027;-78
2022/02/22 00:15:23;;;;;;;80.13;39.63;;;;;;;10.49;68.68;98752.91;5135581;27;20031;-78
2022/02/22 00:17:49;;;;;;;91.03;41.83;;;;;;;10.78;67.81;98771.34;5132745;27;20050;-77
2022/02/22 00:20:16;;;;;;;105.95;44.75;;;;;;;10.87;67.36;98764.13;5136172;27;20356;-77
2022/02/22 00:22:41;;;;;;;108.22;44.20;;;;;;;10.72;67.20;98742.16;5134014;27;20040;-78
2022/02/22 00:25:11;;;;;;;93.68;42.85;;;;;;;10.76;67.79;98765.44;5132833;27;20076;-78
2022/02/22 00:27:38;;;;;;;106.43;44.28;;;;;;;10.93;67.05;98752.78;5134232;27;20015;-77
2022/02/22 00:30:04;;;;;;;85.97;39.50;;;;;;;10.80;67.50;98757.94;5135799;27;20035;-77
2022/02/22 00:32:30;;;;;;;76.13;37.17;;;;;;;10.72;68.53;98756.22;5134193;27;20019;-77
2022/02/22 00:34:55;;;;;;;88.20;39.08;;;;;;;10.64;68.88;98756.31;5134289;27;20308;-77
2022/02/22 00:37:21;;;;;;;73.18;38.20;;;;;;;10.66;69.92;98754.31;5134519;27;20045;-77
2022/02/22 00:39:46;;;;;;;79.88;40.15;;;;;;;10.44;71.03;98758.75;5134548;27;20224;-77
2022/02/22 00:42:12;;;;;;;91.22;42.38;;;;;;;10.60;70.73;98754.25;5135667;27;20039;-77
2022/02/22 00:44:37;;;;;;;86.22;39.50;;;;;;;10.67;69.93;98749.84;5132179;28;20098;-77
2022/02/22 00:47:03;;;;;;;77.45;38.55;;;;;;;10.71;69.36;98754.56;5133309;28;20046;-78
2022/02/22 00:49:28;;;;;;;77.82;38.05;;;;;;;10.76;69.66;98761.97;5135430;27;20035;-78
2022/02/22 00:51:54;;;;;;;79.25;38.30;;;;;;;10.90;68.66;98747.84;5132929;27;20029;-78
2022/02/22 00:54:19;;;;;;;75.35;37.72;;;;;;;10.74;69.99;98754.19;5134398;27;20324;-77
2022/02/22 00:56:44;;;;;;;74.10;36.92;;;;;;;10.72;69.51;98736.88;5133386;28;20230;-77
2022/02/22 00:59:10;;;;;;;72.47;35.60;;;;;;;10.96;69.14;98749.75;5133501;27;20037;-77
2022/02/22 01:01:35;;;;;;;84.53;39.38;;;;;;;10.94;69.71;98750.94;5132144;28;20011;-77
2022/02/22 01:04:01;;;;;;;82.13;38.33;;;;;;;11.00;68.96;98729.81;5134133;28;20031;-77
2022/02/22 01:06:26;;;;;;;88.80;44.22;;;;;;;10.80;69.40;98734.09;5131069;28;20017;-77
2022/02/22 01:08:52;;;;;;;96.60;44.15;;;;;;;10.80;69.34;98720.84;5137138;27;20022;-77
2022/02/22 01:11:17;;;;;;;86.35;39.75;;;;;;;10.89;69.15;98730.31;5136579;27;20031;-77
2022/02/22 01:13:43;;;;;;;74.68;38.40;;;;;;;10.82;69.54;98711.72;5139157;27;20230;-77
2022/02/22 01:16:08;;;;;;;75.43;38.88;;;;;;;10.92;69.73;98727.28;5139153;27;20093;-77
2022/02/22 01:18:34;;;;;;;76.65;36.72;;;;;;;10.85;68.63;98698.09;5136524;27;20177;-78
2022/02/22 01:20:59;;;;;;;71.03;35.83;;;;;;;10.92;69.23;98716.69;5136365;27;20034;-78
2022/02/22 01:23:25;;;;;;;70.00;37.78;;;;;;;10.90;69.15;98717.91;5138109;27;20319;-77
2022/02/22 01:25:50;;;;;;;75.20;37.13;;;;;;;10.91;68.75;98708.94;5138167;27;20405;-77
2022/02/22 01:28:16;;;;;;;74.32;36.60;;;;;;;10.71;69.33;98696.31;5136983;27;20019;-77
2022/02/22 01:30:41;;;;;;;72.95;37.30;;;;;;;10.81;69.13;98701.31;5138331;27;20031;-77
2022/02/22 01:33:07;;;;;;;94.90;41.88;;;;;;;10.70;68.92;98688.56;5135934;27;20236;-77
2022/02/22 01:35:32;;;;;;;124.88;50.13;;;;;;;10.70;69.81;98705.28;5138645;27;20031;-77
2022/02/22 01:37:58;;;;;;;131.15;50.80;;;;;;;10.85;69.29;98691.97;5137342;27;20034;-77
2022/02/22 01:40:26;;;;;;;120.18;48.90;;;;;;;10.79;69.11;98706.78;5137172;27;20160;-77
2022/02/22 01:42:52;;;;;;;99.35;43.33;;;;;;;10.80;69.53;98683.78;5135562;27;20344;-78
2022/02/22 01:45:21;;;;;;;82.88;38.13;;;;;;;10.48;71.21;98685.09;5138912;27;20135;-77
2022/02/22 01:47:46;;;;;;;84.07;37.65;;;;;;;10.67;71.38;98679.19;5135964;27;20198;-77
2022/02/22 01:50:12;;;;;;;79.43;35.40;;;;;;;10.85;69.29;98674.25;5137279;27;20198;-78
2022/02/22 01:52:37;;;;;;;74.25;35.63;;;;;;;10.76;69.03;98680.69;5137208;27;20035;-78
2022/02/22 01:55:03;;;;;;;69.88;34.55;;;;;;;10.82;68.98;98673.81;5135501;27;20278;-77
2022/02/22 01:57:30;;;;;;;69.07;34.53;;;;;;;10.76;70.17;98675.41;5135855;27;20035;-77
2022/02/22 01:59:55;;;;;;;67.80;34.58;;;;;;;10.65;70.80;98680.38;5138935;27;20035;-77
2022/02/22 02:02:21;;;;;;;84.05;39.00;;;;;;;10.52;71.50;98662.53;5135746;27;20186;-77
2022/02/22 02:04:47;;;;;;;88.70;39.38;;;;;;;10.52;71.14;98670.47;5136870;27;20058;-77
2022/02/22 02:07:12;;;;;;;78.43;37.38;;;;;;;10.70;71.25;98681.44;5137727;27;20034;-77
2022/02/22 02:09:37;;;;;;;74.38;35.53;;;;;;;10.59;71.26;98678.47;5135521;27;20635;-77
2022/02/22 02:12:03;;;;;;;75.07;36.13;;;;;;;10.69;70.88;98679.81;5137994;27;20037;-77
2022/02/22 02:14:29;;;;;;;76.18;37.03;;;;;;;10.69;70.74;98679.81;5138029;27;20027;-79
2022/02/22 02:16:57;;;;;;;77.75;37.13;;;;;;;10.68;70.50;98685.28;5135189;27;20086;-78
2022/02/22 02:19:24;;;;;;;71.85;36.17;;;;;;;10.60;70.99;98670.34;5135959;27;20351;-78
2022/02/22 02:21:50;;;;;;;68.82;34.80;;;;;;;10.58;70.55;98675.00;5135138;27;20039;-77
2022/02/22 02:24:24;;;;;;;71.80;34.75;;;;;;;10.51;70.79;98682.88;5135351;27;20046;-77
2022/02/22 02:26:50;;;;;;;;;;;;;;;10.58;70.54;98685.59;5135876;27;20039;-77
2022/02/22 02:29:20;;;;;;;69.10;32.15;;;;;;;10.17;70.64;98672.88;5137633;27;20109;-77
2022/02/22 02:31:46;;;;;;;62.90;33.45;;;;;;;10.06;70.73;98680.47;5136026;27;20039;-77
2022/02/22 02:34:14;;;;;;;66.82;33.13;;;;;;;10.15;69.92;98685.47;5136240;27;20301;-77
2022/02/22 02:36:41;;;;;;;72.80;35.60;;;;;;;10.13;70.29;98702.53;5136563;27;20046;-77
2022/02/22 02:39:08;;;;;;;77.43;36.33;;;;;;;10.01;71.49;98702.19;5136763;27;20110;-77
2022/02/22 02:41:34;;;;;;;74.85;35.05;;;;;;;10.06;70.26;98676.00;5135513;27;20378;-77
2022/02/22 02:44:09;;;;;;;84.18;37.55;;;;;;;10.06;70.96;98678.63;5136790;27;20039;-78
2022/02/22 02:46:35;;;;;;;75.07;36.47;;;;;;;9.63;72.75;98680.31;5136317;27;20031;-78
2022/02/22 02:49:01;;;;;;;78.80;38.55;;;;;;;9.56;73.57;98682.03;5136996;27;20245;-78
2022/02/22 02:51:26;;;;;;;91.38;37.85;;;;;;;9.78;72.60;98682.94;5134023;27;20023;-77
2022/02/22 02:53:54;;;;;;;73.63;35.83;;;;;;;9.56;72.19;98684.69;5137990;27;20031;-77
2022/02/22 02:56:22;;;;;;;94.80;40.20;;;;;;;9.44;73.99;98696.69;5136088;27;20332;-77
2022/02/22 02:58:56;;;;;;;114.28;42.17;;;;;;;9.38;73.42;98666.53;5135663;27;20038;-77
2022/02/22 03:01:21;;;;;;;90.05;36.63;;;;;;;9.53;72.48;98688.50;5133476;27;20027;-77
2022/02/22 03:03:47;;;;;;;78.68;36.13;;;;;;;9.54;72.36;98687.50;5135024;27;20027;-77
2022/02/22 03:06:12;;;;;;;74.07;35.67;;;;;;;9.48;72.64;98690.03;5134421;27;20031;-77
2022/02/22 03:08:38;;;;;;;86.00;38.90;;;;;;;9.49;72.60;98683.75;5134525;27;20094;-77
2022/02/22 03:11:04;;;;;;;72.22;34.88;;;;;;;9.29;72.90;98660.47;5135660;27;20267;-78
2022/02/22 03:13:29;;;;;;;70.53;38.08;;;;;;;9.51;72.82;98687.84;5133876;27;20038;-77
2022/02/22 03:15:55;;;;;;;88.57;38.03;;;;;;;9.55;72.16;98685.69;5135722;27;20421;-78
2022/02/22 03:18:20;;;;;;;85.60;37.35;;;;;;;9.29;72.33;98684.25;5133535;27;20034;-78
2022/02/22 03:20:46;;;;;;;65.00;33.05;;;;;;;9.21;69.92;98680.84;5135510;27;20076;-77
2022/02/22 03:23:11;;;;;;;66.93;32.72;;;;;;;8.94;67.71;98682.25;5136138;27;20026;-77
2022/02/22 03:25:37;;;;;;;63.17;33.13;;;;;;;8.83;68.54;98688.75;5134695;27;20062;-77
2022/02/22 03:28:06;;;;;;;63.90;34.88;;;;;;;8.50;69.60;98669.69;5134851;27;20099;-77
2022/02/22 03:30:32;;;;;;;70.57;35.72;;;;;;;8.62;71.33;98681.50;5135540;27;20052;-77
2022/02/22 03:33:01;;;;;;;79.47;39.28;;;;;;;8.42;73.98;98661.03;5134359;27;20039;-77
2022/02/22 03:35:27;;;;;;;81.53;38.47;;;;;;;8.45;73.24;98690.50;5134442;27;20084;-77
2022/02/22 03:37:53;;;;;;;75.20;36.42;;;;;;;8.28;74.38;98689.72;5137238;27;20046;-77
2022/02/22 03:40:19;;;;;;;88.97;43.80;;;;;;;8.40;73.96;98697.31;5134225;27;20035;-78
2022/02/22 03:42:45;;;;;;;107.13;55.40;;;;;;;8.04;77.52;98689.00;5134802;27;20075;-77
2022/02/22 03:45:12;;;;;;;89.50;45.05;;;;;;;8.31;76.87;98707.00;5137053;27;20048;-77
2022/02/22 03:47:38;;;;;;;91.32;49.72;;;;;;;8.35;76.80;98716.28;5133815;27;20058;-77
2022/02/22 03:50:06;;;;;;;96.78;46.60;;;;;;;8.27;76.71;98718.91;5134322;27;20132;-77
2022/02/22 03:52:31;;;;;;;93.30;46.67;;;;;;;8.49;75.80;98717.38;5135694;27;20082;-77
2022/02/22 03:54:57;;;;;;;87.20;42.28;;;;;;;8.42;75.92;98727.78;5134547;27;20046;-77
2022/02/22 03:57:23;;;;;;;81.82;41.03;;;;;;;8.36;75.53;98706.56;5134142;27;20038;-77
2022/02/22 03:59:48;;;;;;;79.85;38.90;;;;;;;8.49;75.11;98709.44;5135737;27;20060;-77
2022/02/22 04:02:14;;;;;;;89.13;40.63;;;;;;;8.85;73.41;98715.81;5133913;27;20098;-77
2022/02/22 04:04:39;;;;;;;85.53;40.42;;;;;;;8.79;73.61;98721.78;5134684;27;20090;-77
2022/02/22 04:07:05;;;;;;;79.63;38.40;;;;;;;8.77;73.42;98707.13;5134072;27;20293;-78
2022/02/22 04:09:30;;;;;;;80.00;39.20;;;;;;;8.84;72.89;98710.72;5134442;27;20028;-77
2022/02/22 04:11:56;;;;;;;87.07;39.63;;;;;;;8.64;72.47;98681.31;5134397;27;20046;-77
2022/02/22 04:14:21;;;;;;;98.05;41.13;;;;;;;8.67;72.30;98710.00;5136895;27;20031;-77
2022/02/22 04:16:47;;;;;;;81.60;40.22;;;;;;;8.67;72.85;98709.19;5133453;27;20062;-77
2022/02/22 04:19:13;;;;;;;76.57;38.13;;;;;;;8.73;72.99;98703.19;5133376;27;20058;-77
2022/02/22 04:21:38;;;;;;;71.95;36.05;;;;;;;8.74;72.37;98695.09;5134044;27;20031;-77
2022/02/22 04:24:04;;;;;;;74.90;37.80;;;;;;;8.86;71.89;98714.00;5133327;27;20034;-77
2022/02/22 04:26:30;;;;;;;73.68;35.45;;;;;;;8.80;70.99;98714.69;5134533;27;20098;-77
2022/02/22 04:28:57;;;;;;;83.03;36.85;;;;;;;8.79;71.65;98723.63;5132930;27;22390;-77
2022/02/22 04:31:23;;;;;;;91.43;42.72;;;;;;;8.74;71.35;98695.09;5132477;27;20025;-77
2022/02/22 04:33:48;;;;;;;86.20;40.50;;;;;;;8.68;73.35;98718.75;5135447;27;20280;-77
2022/02/22 04:36:14;;;;;;;99.85;42.38;;;;;;;8.70;72.90;98724.66;5133553;27;20038;-77
2022/02/22 04:38:39;;;;;;;94.18;42.55;;;;;;;8.87;72.53;98724.38;5134770;27;20023;-77
2022/02/22 04:41:05;;;;;;;131.77;48.65;;;;;;;8.78;72.42;98709.59;5131927;27;20058;-77
2022/02/22 04:43:30;;;;;;;80.72;38.25;;;;;;;8.66;69.42;98694.34;5133023;27;20019;-77
2022/02/22 04:45:56;;;;;;;77.93;38.50;;;;;;;8.76;70.62;98721.31;5135697;27;20039;-77
2022/02/22 04:48:21;;;;;;;91.20;42.22;;;;;;;8.73;70.69;98714.56;5133005;28;20321;-77
2022/02/22 04:50:46;;;;;;;92.18;40.45;;;;;;;8.73;69.62;98716.41;5132856;28;20047;-77
2022/02/22 04:53:12;;;;;;;71.63;37.05;;;;;;;8.44;71.34;98709.16;5135148;27;20039;-77
2022/02/22 04:55:37;;;;;;;77.75;38.30;;;;;;;8.22;72.27;98716.78;5133505;28;20039;-77
2022/02/22 04:58:03;;;;;;;81.65;40.70;;;;;;;8.09;72.96;98719.16;5133609;27;20030;-77
2022/02/22 05:00:28;;;;;;;91.15;44.65;;;;;;;8.01;75.31;98711.28;5136671;28;20031;-77
2022/02/22 05:02:54;;;;;;;91.15;43.63;;;;;;;7.46;76.40;98687.56;5132820;28;20027;-77
2022/02/22 05:05:20;;;;;;;82.00;42.28;;;;;;;7.50;76.39;98723.94;5133833;27;20152;-77
2022/02/22 05:07:45;;;;;;;94.45;43.05;;;;;;;7.21;78.01;98699.91;5134279;28;20035;-77
2022/02/22 05:10:11;;;;;;;80.05;40.47;;;;;;;7.35;78.99;98731.69;5132608;27;20340;-77
2022/02/22 05:12:37;;;;;;;79.80;38.95;;;;;;;7.60;77.55;98742.19;5133582;27;20075;-77
2022/02/22 05:15:04;;;;;;;90.63;40.25;;;;;;;7.69;76.64;98736.75;5133982;27;20031;-77
2022/02/22 05:17:29;;;;;;;92.80;41.45;;;;;;;7.78;74.90;98707.72;5135306;28;20023;-77
2022/02/22 05:19:55;;;;;;;84.18;40.70;;;;;;;7.89;73.16;98723.19;5138879;27;20060;-77
2022/02/22 05:22:20;;;;;;;87.15;40.60;;;;;;;7.69;75.56;98725.38;5140436;27;20221;-77
2022/02/22 05:24:46;;;;;;;87.25;43.30;;;;;;;7.52;77.13;98750.09;5140469;28;20031;-77
2022/02/22 05:27:11;;;;;;;108.32;48.25;;;;;;;7.86;75.96;98753.31;5138674;28;20039;-77
2022/02/22 05:29:37;;;;;;;98.68;44.38;;;;;;;8.09;72.37;98724.41;5140453;28;20087;-77
2022/02/22 05:32:04;;;;;;;85.07;40.38;;;;;;;8.00;71.66;98755.25;5139912;27;20472;-77
2022/02/22 05:34:33;;;;;;;96.68;42.42;;;;;;;7.71;72.84;98754.19;5141055;27;20038;-77
2022/02/22 05:36:59;;;;;;;98.10;42.13;;;;;;;7.91;72.30;98766.00;5139723;28;20031;-77
2022/02/22 05:39:25;;;;;;;95.18;45.17;;;;;;;7.95;73.50;98767.31;5140176;28;20027;-77
2022/02/22 05:41:50;;;;;;;98.53;47.08;;;;;;;8.06;72.83;98764.31;5140610;27;20220;-77
2022/02/22 05:44:16;;;;;;;102.68;48.47;;;;;;;8.16;73.27;98766.75;5139249;27;20031;-77
2022/02/22 05:46:41;;;;;;;109.18;49.83;;;;;;;8.14;73.97;98781.91;5141175;27;20051;-77
2022/02/22 05:49:07;;;;;;;97.50;50.30;;;;;;;8.17;73.85;98774.50;5140103;27;20317;-77
2022/02/22 05:51:32;;;;;;;89.78;44.45;;;;;;;7.76;74.60;98762.41;5139078;28;20254;-77
2022/02/22 05:53:58;;;;;;;100.88;48.90;;;;;;;8.11;73.17;98780.44;5139438;27;20043;-77
2022/02/22 05:56:23;;;;;;;108.30;48.25;;;;;;;8.20;73.05;98779.41;5141716;27;20233;-77
2022/02/22 05:58:49;;;;;;;96.80;46.60;;;;;;;8.24;72.78;98762.25;5144667;27;20038;-77
2022/02/22 06:01:14;;;;;;;91.70;43.55;;;;;;;8.48;72.46;98781.69;5143364;27;20019;-77
2022/02/22 06:03:40;;;;;;;82.82;41.17;;;;;;;8.42;71.48;98753.34;5143347;27;20027;-77
2022/02/22 06:06:05;;;;;;;86.97;39.67;;;;;;;8.54;71.77;98792.38;5143757;27;20060;-77
2022/02/22 06:08:30;;;;;;;69.40;37.08;;;;;;;8.29;73.21;98803.94;5142591;27;20053;-77
2022/02/22 06:10:56;;;;;;;74.05;39.45;;;;;;;8.50;72.12;98798.97;5140977;27;20075;-77
2022/02/22 06:13:22;;;;;;;85.22;43.85;;;;;;;8.55;72.15;98809.84;5139005;27;20026;-77
2022/02/22 06:15:47;;;;;;;73.50;39.90;;;;;;;8.32;72.52;98783.38;5136355;27;20031;-77
2022/02/22 06:18:16;;;;;;;76.28;41.10;;;;;;;8.48;73.02;98797.50;5139363;27;20318;-77
2022/02/22 06:20:42;;;;;;;79.25;40.97;;;;;;;8.71;72.72;98794.91;5137200;27;20047;-77
2022/02/22 06:23:08;;;;;;;62.00;34.13;;;;;;;8.86;72.52;98799.28;5137868;27;20055;-77
2022/02/22 06:25:33;;;;;;;61.97;33.22;;;;;;;8.93;73.23;98800.22;5138229;27;20098;-77
2022/02/22 06:27:59;;;;;;;60.65;32.85;;;;;;;9.12;73.16;98800.78;5138278;27;20204;-77
2022/02/22 06:30:25;;;;;;;70.22;36.08;;;;;;;9.17;72.77;98799.25;5138711;27;20104;-77
2022/02/22 06:32:51;;;;;;;81.57;41.22;;;;;;;9.25;72.23;98782.53;5136186;27;20639;-77
2022/02/22 06:35:19;;;;;;;101.63;45.15;;;;;;;9.46;71.98;98803.03;5137237;27;20034;-77
2022/02/22 06:37:44;;;;;;;84.35;39.90;;;;;;;9.54;71.84;98789.75;5137259;27;20058;-77
2022/02/22 06:40:10;;;;;;;83.88;39.70;;;;;;;9.60;71.97;98797.78;5134087;27;20027;-77
2022/02/22 06:42:37;;;;;;;72.80;38.80;;;;;;;9.50;72.92;98799.84;5136631;27;20027;-77
2022/02/22 06:45:05;;;;;;;80.38;40.38;;;;;;;9.66;72.56;98798.06;5138764;27;20047;-77
2022/02/22 06:47:30;;;;;;;87.32;40.20;;;;;;;9.79;72.06;98785.88;5136964;27;20031;-77
2022/02/22 06:49:56;;;;;;;81.45;40.30;;;;;;;10.08;71.25;98808.88;5137124;27;20333;-77
2022/02/22 06:52:21;;;;;;;116.78;45.83;;;;;;;10.19;71.31;98800.50;5137726;27;20280;-77
2022/02/22 06:54:47;;;;;;;92.45;45.92;;;;;;;10.23;70.96;98798.34;5136649;27;20075;-77
2022/02/22 06:57:13;;;;;;;87.45;45.13;;;;;;;10.23;70.30;98788.56;5137840;27;20321;-78
2022/02/22 06:59:39;;;;;;;113.90;53.78;;;;;;;10.36;70.54;98811.75;5136455;27;20034;-78
2022/02/22 07:02:04;;;;;;;146.07;59.72;;;;;;;10.14;70.79;98810.78;5136345;27;20292;-77
2022/02/22 07:04:30;;;;;;;99.38;50.60;;;;;;;10.05;71.53;98793.38;5138473;27;20035;-77
2022/02/22 07:06:55;;;;;;;97.72;48.28;;;;;;;9.78;72.50;98812.50;5135139;27;20359;-77
2022/02/22 07:09:21;;;;;;;97.78;47.60;;;;;;;9.95;72.49;98819.25;5139012;27;20234;-77
2022/02/22 07:11:46;;;;;;;98.55;47.58;;;;;;;9.89;72.86;98812.06;5136533;27;20031;-77
2022/02/22 07:14:12;;;;;;;99.95;49.10;;;;;;;10.12;71.00;98818.09;5135627;27;20058;-77
2022/02/22 07:16:37;;;;;;;94.65;47.60;;;;;;;10.20;69.50;98767.78;5137803;27;20102;-77
2022/02/22 07:19:03;;;;;;;107.07;48.55;;;;;;;10.76;68.95;98809.63;5136236;27;20041;-77
2022/02/22 07:21:28;;;;;;;99.70;47.25;;;;;;;11.08;67.89;98795.91;5136024;27;20026;-78
2022/02/22 07:23:54;;;;;;;98.75;46.05;;;;;;;11.23;68.21;98806.47;5136503;27;20023;-77
2022/02/22 07:26:20;;;;;;;90.70;45.75;;;;;;;10.87;68.78;98807.31;5136549;27;20046;-77
2022/02/22 07:28:45;;;;;;;84.47;43.25;;;;;;;10.94;69.61;98799.44;5138338;27;20092;-77
2022/02/22 07:31:11;;;;;;;95.90;44.42;;;;;;;11.29;67.99;98799.59;5135504;27;20047;-77
2022/02/22 07:33:38;;;;;;;97.45;46.40;;;;;;;11.47;67.81;98799.97;5135667;27;20039;-76
2022/02/22 07:36:05;;;;;;;92.93;47.88;;;;;;;11.76;66.14;98812.25;5135179;27;20043;-77
2022/02/22 07:38:30;;;;;;;92.47;46.95;;;;;;;11.99;65.78;98809.41;5134067;27;20268;-77
2022/02/22 07:40:56;;;;;;;97.85;46.72;;;;;;;12.02;66.10;98801.88;5137092;27;20067;-77
2022/02/22 07:43:22;;;;;;;83.57;43.95;;;;;;;12.39;65.55;98794.53;5136641;27;20023;-77
2022/02/22 07:45:47;;;;;;;81.45;41.80;;;;;;;12.52;64.93;98799.94;5134736;27;20039;-77
2022/02/22 07:48:13;;;;;;;83.97;42.78;;;;;;;12.92;64.28;98800.06;5136995;27;20090;-77
2022/02/22 07:50:39;;;;;;;76.40;41.67;;;;;;;12.76;65.51;98803.91;5136504;27;20031;-77
2022/02/22 07:53:05;;;;;;;75.70;40.55;;;;;;;12.82;66.22;98804.94;5133901;27;20176;-77
2022/02/22 07:55:30;;;;;;;78.55;40.20;;;;;;;12.96;65.21;98798.66;5136538;27;20348;-77
2022/02/22 07:57:56;;;;;;;73.35;39.58;;;;;;;13.32;64.75;98801.84;5134620;27;20027;-77
2022/02/22 08:00:21;;;;;;;69.97;39.42;;;;;;;13.47;63.80;98808.81;5136835;27;20122;-77
2022/02/22 08:02:47;;;;;;;80.00;42.63;;;;;;;13.88;62.61;98804.13;5136382;27;20100;-77
2022/02/22 08:05:12;;;;;;;74.65;37.38;;;;;;;14.10;61.97;98801.22;5134747;27;20023;-77
2022/02/22 08:07:38;;;;;;;60.97;36.78;;;;;;;14.04;61.96;98795.72;5137278;27;20212;-77
2022/02/22 08:10:05;;;;;;;63.47;36.20;;;;;;;13.64;63.69;98778.16;5135873;27;20044;-77
2022/02/22 08:12:30;;;;;;;77.15;36.50;;;;;;;13.73;64.18;98791.03;5135768;27;20082;-78
2022/02/22 08:14:56;;;;;;;66.38;33.08;;;;;;;13.71;64.24;98789.59;5135664;27;20333;-78
2022/02/22 08:17:21;;;;;;;56.72;30.15;;;;;;;14.02;63.76;98786.28;5133460;27;20026;-77
2022/02/22 08:19:47;;;;;;;63.28;32.75;;;;;;;14.56;62.44;98790.47;5137643;27;20201;-77
2022/02/22 08:22:13;;;;;;;68.50;33.33;;;;;;;14.28;63.28;98786.25;5134084;27;20022;-77
2022/02/22 08:24:38;;;;;;;54.22;31.10;;;;;;;13.84;65.53;98778.13;5137285;27;20038;-77
2022/02/22 08:27:04;;;;;;;55.58;31.23;;;;;;;13.84;64.57;98776.28;5133689;27;20284;-77
2022/02/22 08:29:31;;;;;;;63.30;35.50;;;;;;;13.90;64.78;98786.09;5140634;27;20039;-77
2022/02/22 08:31:57;;;;;;;62.67;33.25;;;;;;;13.62;66.00;98788.19;5139886;27;20034;-77
2022/02/22 08:34:23;;;;;;;69.85;38.45;;;;;;;13.66;66.46;98789.41;5139507;27;20079;-77
2022/02/22 08:36:48;;;;;;;68.60;36.08;;;;;;;13.89;66.10;98781.81;5139743;27;20325;-78
2022/02/22 08:39:14;;;;;;;57.22;34.20;;;;;;;13.81;66.47;98790.00;5140202;27;20019;-78
2022/02/22 08:41:40;;;;;;;57.13;32.03;;;;;;;13.88;65.80;98782.03;5140509;27;20209;-78
2022/02/22 08:44:06;;;;;;;55.78;30.92;;;;;;;13.98;65.45;98777.91;5141816;27;20083;-77
2022/02/22 08:46:32;;;;;;;61.92;31.95;;;;;;;14.25;64.63;98776.00;5139627;28;20082;-77
2022/02/22 08:48:57;;;;;;;50.20;30.00;;;;;;;14.31;64.39;98767.19;5140691;28;20035;-75
2022/02/22 08:51:23;;;;;;;54.33;27.65;;;;;;;14.28;65.31;98766.78;5138778;28;20083;-77
2022/02/22 08:53:48;;;;;;;46.92;26.15;;;;;;;14.53;64.03;98766.94;5140517;27;20037;-77
2022/02/22 08:56:15;;;;;;;49.17;25.17;;;;;;;14.20;64.80;98757.19;5139557;28;20089;-77
2022/02/22 08:58:40;;;;;;;55.50;25.20;;;;;;;14.45;65.76;98775.16;5139732;27;20030;-77
2022/02/22 09:01:07;;;;;;;37.30;22.85;;;;;;;14.55;63.51;98771.03;5140638;27;20229;-77
2022/02/22 09:03:32;;;;;;;42.25;24.80;;;;;;;14.55;64.51;98780.84;5139579;27;20039;-77
2022/02/22 09:05:59;;;;;;;45.10;23.48;;;;;;;14.86;63.07;98756.16;5140487;27;20091;-77
2022/02/22 09:08:26;;;;;;;47.53;25.90;;;;;;;15.16;61.93;98769.69;5140232;27;20239;-78
2022/02/22 09:10:51;;;;;;;44.67;26.00;;;;;;;15.16;62.05;98743.03;5140725;27;20023;-77
2022/02/22 09:13:17;;;;;;;43.50;26.13;;;;;;;14.80;62.27;98739.16;5139417;28;20055;-77
2022/02/22 09:15:43;;;;;;;38.42;24.35;;;;;;;14.77;62.39;98728.94;5138610;28;20047;-77
2022/02/22 09:18:09;;;;;;;45.60;26.67;;;;;;;14.77;63.90;98763.56;5141445;28;20019;-77
2022/02/22 09:20:35;;;;;;;46.88;27.17;;;;;;;14.72;63.65;98766.06;5137905;28;20035;-77
2022/02/22 09:23:00;;;;;;;48.00;27.45;;;;;;;15.04;63.10;98774.91;5139494;28;20023;-77
2022/02/22 09:25:35;;;;;;;51.63;25.77;;;;;;;15.28;61.88;98766.13;5140740;27;20342;-74
2022/02/22 09:28:04;;;;;;;43.22;25.63;;;;;;;15.26;61.48;98773.53;5139990;27;20030;-74
2022/02/22 09:30:31;;;;;;;45.05;26.52;;;;;;;14.99;61.98;98735.56;5143646;27;20031;-75
2022/02/22 09:32:57;;;;;;;40.00;25.35;;;;;;;15.67;60.11;98776.78;5142273;27;20039;-75
2022/02/22 09:35:27;;;;;;;42.95;26.30;;;;;;;15.84;59.33;98773.34;5143763;27;20255;-76
2022/02/22 09:37:56;;;;;;;39.30;24.67;;;;;;;15.82;59.22;98771.91;5143026;27;20031;-74
2022/02/22 09:40:24;;;;;;;39.25;24.48;;;;;;;15.80;59.11;98780.16;5144603;27;20347;-76
2022/02/22 09:42:50;;;;;;;47.80;25.40;;;;;;;15.58;59.95;98774.34;5142148;27;20039;-77
2022/02/22 09:45:16;;;;;;;41.95;25.25;;;;;;;15.71;59.67;98767.28;5143993;27;20046;-77
2022/02/22 09:47:43;;;;;;;38.38;21.80;;;;;;;15.76;59.49;98780.81;5144237;27;20031;-77
2022/02/22 09:50:11;;;;;;;39.30;23.92;;;;;;;15.84;59.20;98784.00;5143654;27;20303;-75
2022/02/22 09:52:37;;;;;;;37.80;24.05;;;;;;;15.83;59.43;98790.38;5143694;27;20050;-75
2022/02/22 09:55:04;;;;;;;43.58;24.67;;;;;;;15.50;60.39;98779.09;5143409;27;20035;-74
2022/02/22 09:57:29;;;;;;;39.28;26.13;;;;;;;15.36;60.91;98780.22;5143420;27;20031;-74
2022/02/22 09:59:55;;;;;;;42.70;25.98;;;;;;;15.39;60.99;98793.97;5144335;27;20208;-74
2022/02/22 10:02:20;;;;;;;41.25;24.67;;;;;;;15.49;60.48;98794.28;5143055;27;20019;-76
2022/02/22 10:04:49;;;;;;;40.13;23.83;;;;;;;15.71;60.10;98781.47;5144443;27;20095;-76
2022/02/22 10:07:15;;;;;;;39.38;23.08;;;;;;;15.85;59.01;98787.50;5142352;27;20023;-74
2022/02/22 10:10:02;;;;;;;40.80;23.58;;;;;;;15.80;60.32;98800.69;5142589;27;20329;-74
2022/02/22 10:12:30;;;;;;;38.13;22.48;;;;;;;15.92;59.59;98791.75;5142571;27;20035;-74
2022/02/22 10:14:57;;;;;;;38.30;23.02;;;;;;;15.91;59.52;98797.28;5137269;27;20050;-74
2022/02/22 10:17:24;;;;;;;38.92;21.77;;;;;;;16.21;57.83;98792.06;5136438;27;20046;-74
2022/02/22 10:20:01;;;;;;;35.53;21.90;;;;;;;16.14;58.19;98785.97;5133816;27;20065;-74
2022/02/22 10:22:28;;;;;;;39.60;22.27;;;;;;;15.92;59.22;98789.06;5135723;27;20022;-74
2022/02/22 10:25:10;;;;;;;34.88;20.02;;;;;;;15.81;59.44;98791.63;5153064;27;20020;-74
2022/02/22 10:27:50;;;;;;;35.60;20.05;;;;;;;15.94;58.70;98794.19;5136592;27;20043;-74
2022/02/22 10:30:24;;;;;;;32.70;21.05;;;;;;;15.85;58.85;98764.28;5136808;27;20090;-76
2022/02/22 10:32:50;;;;;;;34.03;19.48;;;;;;;16.05;58.71;98785.47;5136350;27;20064;-74
2022/02/22 10:35:34;;;;;;;32.78;18.80;;;;;;;16.02;58.42;98783.22;5135147;27;20038;-74
2022/02/22 10:38:15;;;;;;;34.33;19.38;;;;;;;16.17;57.36;98788.22;5134947;27;20457;-74
2022/02/22 10:40:42;;;;;;;32.28;18.33;;;;;;;16.24;57.86;98783.63;5134032;27;20242;-75
2022/02/22 10:43:18;;;;;;;30.83;17.75;;;;;;;16.24;57.81;98779.09;5135814;27;20033;-75
2022/02/22 10:45:48;;;;;;;32.65;18.15;;;;;;;15.98;58.73;98778.53;5135827;27;20217;-75
2022/02/22 10:48:27;;;;;;;32.63;19.92;;;;;;;15.98;58.81;98774.03;5137000;27;20050;-74
2022/02/22 10:50:53;;;;;;;33.33;20.20;;;;;;;15.95;58.54;98775.28;5138474;27;20353;-74
2022/02/22 10:53:19;;;;;;;32.78;19.55;;;;;;;15.68;59.69;98765.88;5135180;27;20039;-74
2022/02/22 10:55:46;;;;;;;31.85;19.08;;;;;;;15.19;61.21;98730.09;5135336;27;20035;-74
2022/02/22 10:58:12;;;;;;;34.38;19.70;;;;;;;15.43;61.04;98743.66;5135854;27;20031;-76
2022/02/22 11:00:38;;;;;;;36.55;21.98;;;;;;;15.36;61.21;98759.72;5134650;27;20058;-75
2022/02/22 11:03:04;;;;;;;35.17;20.77;;;;;;;15.17;62.52;98752.69;5135876;27;20102;-74
2022/02/22 11:05:30;;;;;;;33.83;19.50;;;;;;;15.31;61.52;98749.69;5134764;27;20035;-75
2022/02/22 11:07:56;;;;;;;37.70;22.83;;;;;;;15.57;60.44;98747.84;5136360;27;20031;-75
2022/02/22 11:10:28;;;;;;;40.00;22.83;;;;;;;15.51;60.21;98741.53;5136221;27;20325;-75
2022/02/22 11:12:59;;;;;;;35.95;20.33;;;;;;;15.55;60.16;98729.41;5136007;27;20283;-74
2022/02/22 11:15:40;;;;;;;36.10;18.75;;;;;;;15.89;59.26;98754.81;5133918;27;20027;-75